createdAt,value
2023-02-09T00:00:02.037Z,99.90
2023-02-09T00:02:29.398Z,99.90
2023-02-09T00:04:56.278Z,99.90
2023-02-09T00:07:23.085Z,99.90
2023-02-09T00:09:51.857Z,99.90
2023-02-09T00:12:37.818Z,99.90
2023-02-09T00:15:06.370Z,99.90
2023-02-09T00:17:37.260Z,99.90
2023-02-09T00:20:05.711Z,99.90
2023-02-09T00:22:33.064Z,99.90
2023-02-09T00:25:00.110Z,99.90
2023-02-09T00:27:27.010Z,99.90
2023-02-09T00:29:53.917Z,99.90
2023-02-09T00:32:20.753Z,99.90
2023-02-09T00:34:47.691Z,99.90
2023-02-09T00:37:14.603Z,99.90
2023-02-09T00:39:41.454Z,99.90
2023-02-09T00:42:08.299Z,99.90
2023-02-09T00:44:37.409Z,99.90
2023-02-09T00:47:05.274Z,99.90
2023-02-09T00:49:33.555Z,99.90
2023-02-09T00:52:00.467Z,99.90
2023-02-09T00:54:27.497Z,99.90
2023-02-09T00:56:54.324Z,99.90
2023-02-09T00:59:21.228Z,99.90
2023-02-09T01:01:48.089Z,99.90
2023-02-09T01:04:14.974Z,99.90
2023-02-09T01:06:41.883Z,99.90
2023-02-09T01:09:08.698Z,99.90
2023-02-09T01:11:35.614Z,99.90
2023-02-09T01:14:04.438Z,99.90
2023-02-09T01:16:31.820Z,99.90
2023-02-09T01:19:01.461Z,99.90
2023-02-09T01:21:28.786Z,99.90
2023-02-09T01:23:55.802Z,99.90
2023-02-09T01:26:23.015Z,99.90
2023-02-09T01:28:52.057Z,99.90
2023-02-09T01:31:31.490Z,99.90
2023-02-09T01:34:00.191Z,99.90
2023-02-09T01:36:27.684Z,99.90
2023-02-09T01:38:56.166Z,99.90
2023-02-09T01:41:23.218Z,99.90
2023-02-09T01:44:03.139Z,99.90
2023-02-09T01:46:32.534Z,99.90
2023-02-09T01:49:16.114Z,99.90
2023-02-09T01:51:44.944Z,99.90
2023-02-09T01:54:16.836Z,99.90
2023-02-09T01:56:48.445Z,99.90
2023-02-09T01:59:16.478Z,99.90
2023-02-09T02:01:44.249Z,99.90
2023-02-09T02:04:11.777Z,99.90
2023-02-09T02:06:39.052Z,99.90
2023-02-09T02:09:13.555Z,99.90
2023-02-09T02:11:43.243Z,99.90
2023-02-09T02:14:34.261Z,99.90
2023-02-09T02:17:26.915Z,99.90
2023-02-09T02:20:15.015Z,99.90
2023-02-09T02:23:13.926Z,99.90
2023-02-09T02:26:07.096Z,99.90
2023-02-09T02:29:00.161Z,99.90
2023-02-09T02:31:51.268Z,99.90
2023-02-09T02:34:18.094Z,99.90
2023-02-09T02:36:52.258Z,99.90
2023-02-09T02:39:37.433Z,99.90
2023-02-09T02:42:39.796Z,99.90
2023-02-09T02:45:11.143Z,99.90
2023-02-09T02:47:42.498Z,99.90
2023-02-09T02:50:14.782Z,99.90
2023-02-09T02:52:46.051Z,99.90
2023-02-09T02:55:17.083Z,99.90
2023-02-09T02:57:49.465Z,99.90
2023-02-09T03:00:30.470Z,99.90
2023-02-09T03:03:02.310Z,99.90
2023-02-09T03:05:30.713Z,99.90
2023-02-09T03:07:57.589Z,99.90
2023-02-09T03:10:32.648Z,99.90
2023-02-09T03:13:08.317Z,99.90
2023-02-09T03:15:41.317Z,99.90
2023-02-09T03:18:18.818Z,99.90
2023-02-09T03:20:55.134Z,99.90
2023-02-09T03:23:45.652Z,99.90
2023-02-09T03:26:22.422Z,99.90
2023-02-09T03:28:54.412Z,99.90
2023-02-09T03:31:23.142Z,99.90
2023-02-09T03:33:50.756Z,99.90
2023-02-09T03:36:20.017Z,99.90
2023-02-09T03:38:46.830Z,99.90
2023-02-09T03:41:13.804Z,99.90
2023-02-09T03:43:59.133Z,99.90
2023-02-09T03:46:26.076Z,99.90
2023-02-09T03:48:52.912Z,99.90
2023-02-09T03:51:19.735Z,99.90
2023-02-09T03:53:47.277Z,99.90
2023-02-09T03:56:14.176Z,99.90
2023-02-09T03:58:40.998Z,99.90
2023-02-09T04:01:10.530Z,99.90
2023-02-09T04:03:39.931Z,99.90
2023-02-09T04:06:10.019Z,99.90
2023-02-09T04:08:37.159Z,99.90
2023-02-09T04:11:04.121Z,99.90
2023-02-09T04:13:31.107Z,99.90
2023-02-09T04:15:58.034Z,99.90
2023-02-09T04:18:24.888Z,99.90
2023-02-09T04:20:51.733Z,99.90
2023-02-09T04:23:20.927Z,99.90
2023-02-09T04:25:47.956Z,99.90
2023-02-09T04:28:14.858Z,99.90
2023-02-09T04:30:43.835Z,99.90
2023-02-09T04:33:11.411Z,99.90
2023-02-09T04:35:38.603Z,99.90
2023-02-09T04:38:05.466Z,99.90
2023-02-09T04:40:32.264Z,99.90
2023-02-09T04:42:59.099Z,99.90
2023-02-09T04:45:25.898Z,99.90
2023-02-09T04:47:52.729Z,99.90
2023-02-09T04:50:19.638Z,99.90
2023-02-09T04:52:46.520Z,99.90
2023-02-09T04:55:13.390Z,99.90
2023-02-09T04:57:59.110Z,99.90
2023-02-09T05:00:25.946Z,99.90
2023-02-09T05:02:54.050Z,99.90
2023-02-09T05:05:21.103Z,99.90
2023-02-09T05:07:47.978Z,99.90
2023-02-09T05:10:14.883Z,99.90
2023-02-09T05:12:41.705Z,99.90
2023-02-09T05:15:08.983Z,99.90
2023-02-09T05:17:35.861Z,99.90
2023-02-09T05:20:03.085Z,99.90
2023-02-09T05:22:29.894Z,99.90
2023-02-09T05:24:56.701Z,99.90
2023-02-09T05:27:23.564Z,99.90
2023-02-09T05:29:50.454Z,99.90
2023-02-09T05:32:17.581Z,99.90
2023-02-09T05:34:44.472Z,99.90
2023-02-09T05:37:11.281Z,99.90
2023-02-09T05:39:38.078Z,99.90
2023-02-09T05:42:16.922Z,99.90
2023-02-09T05:44:45.789Z,99.90
2023-02-09T05:47:13.775Z,99.90
2023-02-09T05:49:40.685Z,99.90
2023-02-09T05:52:08.308Z,99.90
2023-02-09T05:54:35.226Z,99.90
2023-02-09T05:57:02.337Z,99.90
2023-02-09T05:59:29.224Z,99.90
2023-02-09T06:01:56.170Z,99.90
2023-02-09T06:04:25.496Z,99.90
2023-02-09T06:06:52.745Z,99.90
2023-02-09T06:09:20.079Z,99.90
2023-02-09T06:11:47.342Z,99.90
2023-02-09T06:14:14.331Z,99.90
2023-02-09T06:16:41.754Z,99.90
2023-02-09T06:19:16.008Z,99.90
2023-02-09T06:21:43.171Z,99.90
2023-02-09T06:24:10.192Z,99.90
2023-02-09T06:26:37.445Z,99.90
2023-02-09T06:29:04.457Z,99.90
2023-02-09T06:31:31.499Z,99.90
2023-02-09T06:33:58.402Z,99.90
2023-02-09T06:36:25.291Z,99.90
2023-02-09T06:38:52.251Z,99.90
2023-02-09T06:41:19.120Z,99.90
2023-02-09T06:43:46.028Z,99.90
2023-02-09T06:46:13.700Z,99.90
2023-02-09T06:48:41.016Z,99.90
2023-02-09T06:51:10.447Z,99.90
2023-02-09T06:53:38.606Z,99.90
2023-02-09T06:56:06.994Z,99.90
2023-02-09T06:58:34.629Z,99.90
2023-02-09T07:01:06.376Z,99.90
2023-02-09T07:03:33.470Z,99.90
2023-02-09T07:06:14.972Z,99.90
2023-02-09T07:08:43.183Z,99.90
2023-02-09T07:11:12.551Z,99.90
2023-02-09T07:13:39.513Z,99.90
2023-02-09T07:16:08.709Z,99.90
2023-02-09T07:18:36.099Z,99.90
2023-02-09T07:21:06.592Z,99.90
2023-02-09T07:23:33.493Z,95.50
2023-02-09T07:26:08.950Z,93.30
2023-02-09T07:28:36.632Z,91.60
2023-02-09T07:31:06.186Z,95.00
2023-02-09T07:33:34.781Z,97.10
2023-02-09T07:36:05.302Z,95.70
2023-02-09T07:38:32.485Z,91.50
2023-02-09T07:41:01.166Z,90.30
2023-02-09T07:43:28.107Z,83.10
2023-02-09T07:46:00.862Z,83.80
2023-02-09T07:48:28.017Z,81.90
2023-02-09T07:50:55.082Z,69.10
2023-02-09T07:53:22.904Z,70.80
2023-02-09T07:55:49.814Z,62.70
2023-02-09T07:58:18.402Z,62.80
2023-02-09T08:00:46.406Z,59.60
2023-02-09T08:03:15.833Z,59.70
2023-02-09T08:06:06.231Z,57.00
2023-02-09T08:08:33.206Z,55.10
2023-02-09T08:11:04.281Z,53.10
2023-02-09T08:13:35.880Z,51.00
2023-02-09T08:16:06.196Z,48.70
2023-02-09T08:18:37.795Z,48.50
2023-02-09T08:21:08.632Z,48.50
2023-02-09T08:23:36.973Z,46.70
2023-02-09T08:26:10.580Z,47.10
2023-02-09T08:28:44.411Z,46.30
2023-02-09T08:31:17.895Z,45.30
2023-02-09T08:33:46.467Z,45.70
2023-02-09T08:36:14.396Z,44.60
2023-02-09T08:38:41.586Z,44.10
2023-02-09T08:41:11.079Z,45.30
2023-02-09T08:43:38.059Z,44.80
2023-02-09T08:46:13.328Z,43.00
2023-02-09T08:48:43.042Z,43.50
2023-02-09T08:51:12.080Z,42.70
2023-02-09T08:53:39.915Z,49.10
2023-02-09T08:56:07.139Z,43.10
2023-02-09T08:58:34.009Z,41.00
2023-02-09T09:01:01.158Z,42.50
2023-02-09T09:03:31.600Z,41.30
2023-02-09T09:06:04.297Z,40.60
2023-02-09T09:08:32.514Z,60.80
2023-02-09T09:10:59.358Z,46.10
2023-02-09T09:13:26.686Z,39.40
2023-02-09T09:15:55.433Z,43.00
2023-02-09T09:18:24.412Z,38.40
2023-02-09T09:20:51.836Z,40.40
2023-02-09T09:23:19.050Z,45.20
2023-02-09T09:25:46.197Z,47.20
2023-02-09T09:28:13.358Z,38.40
2023-02-09T09:30:40.349Z,38.10
2023-02-09T09:33:07.300Z,38.50
2023-02-09T09:35:34.205Z,39.10
2023-02-09T09:38:01.723Z,39.20
2023-02-09T09:40:32.974Z,38.60
2023-02-09T09:46:39.744Z,39.50
2023-02-09T09:49:23.256Z,38.50
2023-02-09T09:51:55.223Z,40.30
2023-02-09T09:54:25.636Z,42.20
2023-02-09T09:56:54.972Z,42.20
2023-02-09T09:59:56.280Z,43.40
2023-02-09T10:02:30.280Z,44.00
2023-02-09T10:05:21.743Z,45.20
2023-02-09T10:08:16.186Z,45.40
2023-02-09T10:11:05.758Z,45.60
2023-02-09T10:13:35.087Z,47.70
2023-02-09T10:16:02.607Z,49.00
2023-02-09T10:18:31.183Z,50.00
2023-02-09T10:21:06.932Z,51.20
2023-02-09T10:23:45.296Z,53.00
2023-02-09T10:26:25.967Z,55.30
2023-02-09T10:28:58.076Z,56.00
2023-02-09T10:31:47.798Z,55.50
2023-02-09T10:34:18.159Z,56.00
2023-02-09T10:36:51.920Z,56.20
2023-02-09T10:39:30.288Z,56.90
2023-02-09T10:42:12.372Z,57.60
2023-02-09T10:44:40.383Z,58.40
2023-02-09T10:47:11.819Z,58.20
2023-02-09T10:49:42.226Z,59.90
2023-02-09T10:52:24.163Z,58.70
2023-02-09T10:54:56.667Z,57.90
2023-02-09T10:57:45.537Z,57.20
2023-02-09T11:00:24.851Z,57.70
2023-02-09T11:02:55.036Z,58.00
2023-02-09T11:05:22.029Z,57.30
2023-02-09T11:08:21.330Z,56.90
2023-02-09T11:11:09.370Z,56.30
2023-02-09T11:13:37.204Z,57.10
2023-02-09T11:16:21.850Z,56.90
2023-02-09T11:19:00.143Z,56.60
2023-02-09T11:21:54.817Z,55.60
2023-02-09T11:24:36.388Z,56.70
2023-02-09T11:27:27.171Z,56.90
2023-02-09T11:30:24.518Z,58.00
2023-02-09T11:33:10.098Z,58.80
2023-02-09T11:35:48.003Z,60.00
2023-02-09T11:38:19.027Z,60.10
2023-02-09T11:40:55.721Z,61.20
2023-02-09T11:43:38.174Z,61.50
2023-02-09T11:46:14.157Z,61.60
2023-02-09T11:48:45.755Z,62.30
2023-02-09T11:51:23.140Z,63.00
2023-02-09T11:54:16.873Z,63.30
2023-02-09T11:56:56.004Z,63.20
2023-02-09T11:59:30.826Z,63.00
2023-02-09T12:02:16.466Z,63.10
2023-02-09T12:05:02.843Z,62.90
2023-02-09T12:07:43.658Z,64.10
2023-02-09T12:10:23.827Z,63.80
2023-02-09T12:13:00.513Z,63.50
2023-02-09T12:15:38.643Z,62.60
2023-02-09T12:18:21.333Z,62.60
2023-02-09T12:20:56.272Z,62.70
2023-02-09T12:23:41.100Z,62.90
2023-02-09T12:26:16.780Z,63.60
2023-02-09T12:28:48.202Z,63.70
2023-02-09T12:31:26.977Z,63.20
2023-02-09T12:33:59.902Z,63.30
2023-02-09T12:36:33.007Z,63.60
2023-02-09T12:39:24.360Z,64.80
2023-02-09T12:41:51.221Z,64.60
2023-02-09T12:44:19.428Z,65.10
2023-02-09T12:46:51.891Z,66.30
2023-02-09T12:49:31.554Z,66.30
2023-02-09T12:52:01.185Z,66.80
2023-02-09T12:54:53.273Z,66.80
2023-02-09T12:57:23.899Z,67.00
2023-02-09T12:59:51.097Z,67.60
2023-02-09T13:02:35.898Z,67.70
2023-02-09T13:05:37.452Z,67.50
2023-02-09T13:08:16.368Z,67.30
2023-02-09T13:10:46.010Z,66.50
2023-02-09T13:13:12.840Z,66.70
2023-02-09T13:16:12.681Z,66.70
2023-02-09T13:19:09.859Z,66.60
2023-02-09T13:22:16.571Z,66.60
2023-02-09T13:24:56.614Z,67.20
2023-02-09T13:27:25.082Z,66.80
2023-02-09T13:29:54.112Z,66.90
2023-02-09T13:32:48.791Z,67.30
2023-02-09T13:35:23.890Z,67.10
2023-02-09T13:37:59.424Z,66.80
2023-02-09T13:40:29.773Z,66.60
2023-02-09T13:43:13.683Z,66.50
2023-02-09T13:45:49.413Z,66.30
2023-02-09T13:48:27.620Z,66.40
2023-02-09T13:50:56.752Z,66.70
2023-02-09T13:53:26.218Z,66.70
2023-02-09T13:55:56.531Z,65.90
2023-02-09T13:58:33.052Z,65.30
2023-02-09T14:01:09.134Z,64.00
2023-02-09T14:03:58.349Z,63.20
2023-02-09T14:06:28.284Z,63.70
2023-02-09T14:08:57.797Z,63.60
2023-02-09T14:11:42.345Z,63.40
2023-02-09T14:14:19.119Z,63.70
2023-02-09T14:16:53.440Z,64.00
2023-02-09T14:19:31.268Z,64.80
2023-02-09T14:21:59.620Z,65.10
2023-02-09T14:24:28.411Z,65.40
2023-02-09T14:27:16.403Z,65.00
2023-02-09T14:29:47.325Z,65.60
2023-02-09T14:32:35.761Z,66.00
2023-02-09T14:35:30.006Z,66.80
2023-02-09T14:38:01.194Z,67.80
2023-02-09T14:40:28.275Z,68.30
2023-02-09T14:43:20.055Z,69.40
2023-02-09T14:45:57.193Z,69.80
2023-02-09T14:48:29.455Z,70.50
2023-02-09T14:51:00.444Z,70.80
2023-02-09T14:53:33.460Z,70.80
2023-02-09T14:56:00.578Z,71.30
2023-02-09T14:58:32.585Z,71.70
2023-02-09T15:01:01.694Z,72.30
2023-02-09T15:03:29.024Z,72.00
2023-02-09T15:05:59.093Z,72.30
2023-02-09T15:08:28.483Z,72.50
2023-02-09T15:10:59.121Z,72.80
2023-02-09T15:13:29.156Z,73.10
2023-02-09T15:15:56.289Z,73.40
2023-02-09T15:18:25.999Z,73.60
2023-02-09T15:20:53.430Z,73.80
2023-02-09T15:23:20.402Z,73.80
2023-02-09T15:25:48.129Z,73.90
2023-02-09T15:28:28.259Z,74.00
2023-02-09T15:30:56.674Z,74.00
2023-02-09T15:33:25.246Z,73.70
2023-02-09T15:35:52.165Z,73.80
2023-02-09T15:38:19.231Z,73.40
2023-02-09T15:41:09.053Z,73.40
2023-02-09T15:43:54.678Z,73.50
2023-02-09T15:46:40.383Z,73.80
2023-02-09T15:49:07.679Z,74.10
2023-02-09T15:51:37.337Z,74.20
2023-02-09T15:54:09.289Z,74.40
2023-02-09T15:56:37.176Z,74.70
2023-02-09T15:59:05.691Z,74.70
2023-02-09T16:01:34.550Z,74.80
2023-02-09T16:04:13.586Z,74.70
2023-02-09T16:06:45.416Z,74.70
2023-02-09T16:09:18.962Z,74.90
2023-02-09T16:11:48.476Z,75.10
2023-02-09T16:14:20.760Z,75.10
2023-02-09T16:16:48.297Z,76.30
2023-02-09T16:19:16.849Z,75.80
2023-02-09T16:21:49.976Z,76.50
2023-02-09T16:24:32.847Z,77.50
2023-02-09T16:27:02.048Z,77.70
2023-02-09T16:29:29.093Z,78.90
2023-02-09T16:31:56.010Z,78.60
2023-02-09T16:34:22.860Z,79.10
2023-02-09T16:36:50.259Z,80.40
2023-02-09T16:39:19.698Z,80.20
2023-02-09T16:41:50.835Z,80.70
2023-02-09T16:44:19.673Z,81.00
2023-02-09T16:46:48.956Z,81.30
2023-02-09T16:49:40.062Z,81.70
2023-02-09T16:52:21.002Z,82.50
2023-02-09T16:54:51.374Z,81.60
2023-02-09T16:57:23.114Z,81.70
2023-02-09T16:59:51.249Z,81.50
2023-02-09T17:02:39.765Z,81.40
2023-02-09T17:05:21.142Z,81.50
2023-02-09T17:07:55.144Z,81.70
2023-02-09T17:10:26.296Z,82.00
2023-02-09T17:12:53.872Z,82.80
2023-02-09T17:15:30.130Z,82.60
2023-02-09T17:18:03.559Z,83.10
2023-02-09T17:20:37.720Z,83.30
2023-02-09T17:23:05.122Z,83.20
2023-02-09T17:25:32.047Z,83.30
2023-02-09T17:27:59.071Z,83.70
2023-02-09T17:30:26.387Z,84.10
2023-02-09T17:33:00.363Z,85.10
2023-02-09T17:35:53.131Z,84.90
2023-02-09T17:38:23.097Z,85.40
2023-02-09T17:40:51.439Z,87.20
2023-02-09T17:43:18.442Z,86.50
2023-02-09T17:45:50.794Z,86.90
2023-02-09T17:48:18.716Z,87.30
2023-02-09T17:50:48.662Z,88.50
2023-02-09T17:53:21.495Z,88.30
2023-02-09T17:55:49.080Z,89.40
2023-02-09T17:58:16.884Z,89.20
2023-02-09T18:00:45.021Z,89.80
2023-02-09T18:03:16.727Z,90.10
2023-02-09T18:05:44.459Z,90.40
2023-02-09T18:08:11.568Z,90.80
2023-02-09T18:10:38.700Z,91.30
2023-02-09T18:13:05.985Z,91.70
2023-02-09T18:15:37.150Z,92.30
2023-02-09T18:18:04.595Z,92.70
2023-02-09T18:20:33.502Z,93.10
2023-02-09T18:23:02.809Z,93.60
2023-02-09T18:25:31.110Z,94.20
2023-02-09T18:27:57.982Z,94.80
2023-02-09T18:30:28.258Z,95.70
2023-02-09T18:32:56.023Z,96.40
2023-02-09T18:35:31.047Z,97.30
2023-02-09T18:37:57.886Z,98.10
2023-02-09T18:40:24.883Z,98.90
2023-02-09T18:42:52.011Z,99.40
2023-02-09T18:45:20.227Z,99.50
2023-02-09T18:47:47.411Z,99.80
2023-02-09T18:50:19.444Z,99.90
2023-02-09T18:52:47.394Z,99.90
2023-02-09T18:55:14.297Z,99.90
2023-02-09T18:57:41.214Z,99.90
2023-02-09T19:00:09.989Z,99.90
2023-02-09T19:02:36.885Z,99.90
2023-02-09T19:05:04.617Z,99.90
2023-02-09T19:07:33.416Z,99.90
2023-02-09T19:10:00.771Z,99.90
2023-02-09T19:12:28.441Z,99.90
2023-02-09T19:14:55.393Z,99.90
2023-02-09T19:17:22.510Z,99.90
2023-02-09T19:19:50.220Z,99.90
2023-02-09T19:22:20.181Z,99.90
2023-02-09T19:24:48.177Z,99.90
2023-02-09T19:27:17.243Z,99.90
2023-02-09T19:29:45.176Z,99.90
2023-02-09T19:32:14.486Z,99.90
2023-02-09T19:34:43.247Z,99.90
2023-02-09T19:37:12.804Z,99.90
2023-02-09T19:39:41.715Z,99.90
2023-02-09T19:42:08.990Z,99.90
2023-02-09T19:44:36.325Z,99.90
2023-02-09T19:47:03.406Z,99.90
2023-02-09T19:49:31.806Z,99.90
2023-02-09T19:51:59.261Z,99.90
2023-02-09T19:54:26.090Z,99.90
2023-02-09T19:56:53.200Z,99.90
2023-02-09T19:59:20.137Z,99.90
2023-02-09T20:01:47.123Z,99.90
2023-02-09T20:04:15.294Z,99.90
2023-02-09T20:06:42.536Z,99.90
2023-02-09T20:09:12.279Z,99.90
2023-02-09T20:11:39.217Z,99.90
2023-02-09T20:14:06.184Z,99.90
2023-02-09T20:16:33.393Z,99.90
2023-02-09T20:19:00.385Z,99.90
2023-02-09T20:21:27.422Z,99.90
2023-02-09T20:23:56.039Z,99.90
2023-02-09T20:26:27.146Z,99.90
2023-02-09T20:28:55.446Z,99.90
2023-02-09T20:31:28.186Z,99.90
2023-02-09T20:33:57.384Z,99.90
2023-02-09T20:36:25.575Z,99.90
2023-02-09T20:38:52.762Z,99.90
2023-02-09T20:41:19.604Z,99.90
2023-02-09T20:44:05.413Z,99.90
2023-02-09T20:46:52.278Z,99.90
2023-02-09T20:49:19.564Z,99.90
2023-02-09T20:51:47.364Z,99.90
2023-02-09T20:54:15.024Z,99.90
2023-02-09T20:56:42.168Z,99.90
2023-02-09T20:59:09.101Z,99.90
2023-02-09T21:01:39.866Z,99.90
2023-02-09T21:04:07.536Z,99.90
2023-02-09T21:06:37.110Z,99.90
2023-02-09T21:09:08.673Z,99.90
2023-02-09T21:11:35.678Z,99.90
2023-02-09T21:14:03.893Z,99.90
2023-02-09T21:16:31.492Z,99.90
2023-02-09T21:18:59.124Z,99.90
2023-02-09T21:21:27.186Z,99.90
2023-02-09T21:23:54.622Z,99.90
2023-02-09T21:26:24.695Z,99.90
2023-02-09T21:28:56.235Z,99.90
2023-02-09T21:31:27.017Z,99.90
2023-02-09T21:33:54.359Z,99.90
2023-02-09T21:36:21.188Z,99.90
2023-02-09T21:38:48.324Z,99.90
2023-02-09T21:41:42.400Z,99.90
2023-02-09T21:44:11.785Z,99.90
2023-02-09T21:46:39.126Z,99.90
2023-02-09T21:49:06.237Z,99.90
2023-02-09T21:51:33.416Z,99.90
2023-02-09T21:54:00.468Z,99.90
2023-02-09T21:56:27.389Z,99.90
2023-02-09T21:58:54.357Z,99.90
2023-02-09T22:01:21.499Z,99.90
2023-02-09T22:03:57.402Z,99.90
2023-02-09T22:06:25.657Z,99.90
2023-02-09T22:08:52.961Z,99.90
2023-02-09T22:11:19.896Z,99.90
2023-02-09T22:13:46.810Z,99.90
2023-02-09T22:16:18.730Z,99.90
2023-02-09T22:18:45.898Z,99.90
2023-02-09T22:21:12.908Z,99.90
2023-02-09T22:23:39.772Z,99.90
2023-02-09T22:26:07.507Z,99.90
2023-02-09T22:28:36.506Z,99.90
2023-02-09T22:31:14.751Z,99.90
2023-02-09T22:33:42.068Z,99.90
2023-02-09T22:36:12.517Z,99.90
2023-02-09T22:38:39.893Z,99.90
2023-02-09T22:41:21.500Z,99.90
2023-02-09T22:43:52.254Z,99.90
2023-02-09T22:46:20.688Z,99.90
2023-02-09T22:48:55.354Z,99.90
2023-02-09T22:51:24.215Z,99.90
2023-02-09T22:53:51.503Z,99.90
2023-02-09T22:56:18.442Z,99.90
2023-02-09T22:58:45.341Z,99.90
2023-02-09T23:01:13.280Z,99.90
2023-02-09T23:03:41.358Z,99.90
2023-02-09T23:06:12.009Z,99.90
2023-02-09T23:08:38.842Z,99.90
2023-02-09T23:11:08.940Z,99.90
2023-02-09T23:13:37.238Z,99.90
2023-02-09T23:16:14.258Z,99.90
2023-02-09T23:18:47.059Z,99.90
2023-02-09T23:21:14.785Z,99.90
2023-02-09T23:23:41.673Z,99.90
2023-02-09T23:26:08.626Z,99.90
2023-02-09T23:28:35.564Z,99.90
2023-02-09T23:31:07.398Z,99.90
2023-02-09T23:33:36.471Z,99.90
2023-02-09T23:36:11.900Z,99.90
2023-02-09T23:38:38.754Z,99.90
2023-02-09T23:41:07.532Z,99.90
2023-02-09T23:43:35.487Z,99.90
2023-02-09T23:46:03.639Z,99.90
2023-02-09T23:48:30.839Z,99.90
2023-02-09T23:51:02.342Z,99.90
2023-02-09T23:53:30.202Z,99.90
2023-02-09T23:56:03.687Z,99.90
2023-02-09T23:58:36.415Z,99.90
